Time;durP1;ratioP1;P1;durP2;ratioP2;P2;SDS_P1;SDS_P2;PMS_P1;PMS_P2;Temp;Humidity;BMP_temperature;BMP_pressure;BME280_temperature;BME280_humidity;BME280_pressure;Samples;Min_cycle;Max_cycle;Signal;HPM_P1;HPM_P2
2021/12/11 00:00:19;;;;;;;15.88;11.28;;;;;;;9.47;86.17;101075.20;1757669;81;21185;-52
2021/12/11 00:03:29;;;;;;;15.38;11.55;;;;;;;9.46;86.29;101061.20;1746000;81;21208;-51
2021/12/11 00:06:39;;;;;;;19.10;12.10;;;;;;;9.45;86.38;101058.62;1770211;81;21588;-52
2021/12/11 00:10:10;;;;;;;18.32;12.35;;;;;;;9.48;86.53;101063.25;1767734;81;21212;-52
2021/12/11 00:13:18;;;;;;;16.67;11.95;;;;;;;9.44;86.41;101076.88;1767554;81;21196;-51
2021/12/11 00:16:26;;;;;;;17.82;12.20;;;;;;;9.46;86.62;101058.47;1740111;82;21185;-51
2021/12/11 00:19:37;;;;;;;18.90;12.03;;;;;;;9.47;86.49;101057.44;1738954;82;21856;-51
2021/12/11 00:22:43;;;;;;;15.28;11.75;;;;;;;9.50;86.51;101060.40;1746965;80;21216;-53
2021/12/11 00:25:52;;;;;;;16.25;11.83;;;;;;;9.46;86.45;101044.80;1738257;82;21730;-51
2021/12/11 00:28:57;;;;;;;17.92;12.15;;;;;;;9.47;86.54;101053.84;1738674;82;21225;-52
2021/12/11 00:32:13;;;;;;;15.32;10.93;;;;;;;9.47;86.47;101045.64;1740577;82;21244;-52
2021/12/11 00:35:24;;;;;;;19.12;12.78;;;;;;;9.46;86.42;101043.94;1739804;82;21335;-52
2021/12/11 00:38:34;;;;;;;17.65;11.73;;;;;;;9.40;86.42;101049.52;1739831;82;21232;-52
2021/12/11 00:41:50;;;;;;;20.23;12.47;;;;;;;9.36;86.48;101041.25;1740041;82;21283;-52
2021/12/11 00:44:55;;;;;;;19.12;12.60;;;;;;;9.32;86.71;101033.02;1740334;82;21181;-53
2021/12/11 00:48:04;;;;;;;17.37;11.78;;;;;;;9.37;86.80;101035.30;1740504;81;21318;-52
2021/12/11 00:51:22;;;;;;;17.00;12.03;;;;;;;9.37;86.75;101040.23;1740413;82;21362;-52
2021/12/11 00:54:27;;;;;;;17.75;13.25;;;;;;;9.37;86.85;101032.56;1740403;82;21233;-53
2021/12/11 00:57:33;;;;;;;18.75;12.47;;;;;;;9.39;86.85;101031.38;1740817;82;21410;-52
2021/12/11 01:00:45;;;;;;;17.23;12.40;;;;;;;9.38;86.79;101037.88;1740337;82;21228;-56
2021/12/11 01:03:57;;;;;;;19.45;13.43;;;;;;;9.37;86.83;101030.66;1734169;82;21216;-52
2021/12/11 01:07:15;;;;;;;18.92;13.05;;;;;;;9.35;86.82;101028.61;1740370;82;21374;-52
2021/12/11 01:10:28;;;;;;;19.37;13.13;;;;;;;9.36;86.88;101041.25;1741703;80;21181;-52
2021/12/11 01:13:36;;;;;;;22.95;15.10;;;;;;;9.36;86.85;101048.09;1740294;82;21229;-51
2021/12/11 01:16:42;;;;;;;20.82;14.33;;;;;;;9.36;86.88;101046.72;1740382;82;21472;-51
2021/12/11 01:19:51;;;;;;;16.77;13.10;;;;;;;9.34;86.87;101043.27;1740309;82;21243;-51
2021/12/11 01:22:56;;;;;;;19.73;13.62;;;;;;;9.31;86.85;101035.38;1740363;82;21205;-51
2021/12/11 01:26:01;;;;;;;18.50;13.08;;;;;;;9.32;86.98;101034.39;1740468;81;21786;-52
2021/12/11 01:29:07;;;;;;;22.95;13.68;;;;;;;9.31;86.96;101044.10;1739269;81;21185;-52
2021/12/11 01:32:14;;;;;;;21.17;14.13;;;;;;;9.28;86.89;101027.48;1740196;82;21237;-52
2021/12/11 01:35:20;;;;;;;18.42;14.03;;;;;;;9.27;87.05;101045.40;1740369;82;21422;-52
2021/12/11 01:38:31;;;;;;;19.85;13.93;;;;;;;9.28;87.19;101041.15;1740378;82;21233;-52
2021/12/11 01:41:38;;;;;;;20.20;14.30;;;;;;;9.31;87.22;101043.58;1740311;82;21197;-52
2021/12/11 01:44:44;;;;;;;20.62;14.53;;;;;;;9.30;87.10;101022.74;1740211;82;21359;-52
2021/12/11 01:47:52;;;;;;;21.87;14.50;;;;;;;9.30;87.14;101036.90;1740126;82;21354;-51
2021/12/11 01:51:02;;;;;;;19.37;13.48;;;;;;;9.32;87.30;101031.66;1740288;82;21339;-51
2021/12/11 01:54:13;;;;;;;25.55;15.38;;;;;;;9.35;87.24;101030.48;1740534;82;21374;-52
2021/12/11 01:57:23;;;;;;;23.20;15.23;;;;;;;9.35;87.19;101028.61;1740222;82;21208;-50
2021/12/11 02:00:43;;;;;;;25.15;17.48;;;;;;;9.38;87.23;101035.63;1739911;82;21331;-52
2021/12/11 02:03:49;;;;;;;31.82;19.52;;;;;;;9.39;87.28;101032.75;1740145;82;21776;-51
2021/12/11 02:06:57;;;;;;;34.10;20.75;;;;;;;9.42;87.26;101036.54;1740594;82;21212;-52
2021/12/11 02:10:02;;;;;;;40.40;21.52;;;;;;;9.41;86.92;101040.80;1740325;82;21399;-53
2021/12/11 02:13:08;;;;;;;38.08;22.73;;;;;;;9.36;86.83;101030.82;1740576;82;21466;-52
2021/12/11 02:16:16;;;;;;;44.35;23.12;;;;;;;9.32;86.81;101028.05;1740416;82;21232;-53
2021/12/11 02:19:33;;;;;;;42.05;22.70;;;;;;;9.27;86.81;101031.74;1739933;82;21256;-53
2021/12/11 02:22:40;;;;;;;39.40;23.83;;;;;;;9.25;86.94;101033.27;1740347;82;21876;-51
2021/12/11 02:25:49;;;;;;;44.80;25.10;;;;;;;9.20;86.78;101029.28;1740434;82;21208;-53
2021/12/11 02:28:58;;;;;;;46.80;24.90;;;;;;;9.16;86.97;101034.17;1742039;81;21799;-52
2021/12/11 02:32:28;;;;;;;50.15;26.62;;;;;;;9.17;87.09;101034.52;1742564;82;21331;-53
2021/12/11 02:35:43;;;;;;;41.77;24.45;;;;;;;9.16;86.98;101037.41;1742530;82;21331;-52
2021/12/11 02:39:03;;;;;;;45.12;24.67;;;;;;;9.12;86.95;101025.91;1740102;81;21417;-51
2021/12/11 02:42:22;;;;;;;47.48;26.70;;;;;;;9.03;86.92;101033.66;1742335;82;21491;-53
2021/12/11 02:45:48;;;;;;;45.73;22.75;;;;;;;9.00;87.09;101021.67;1743315;82;21410;-53
2021/12/11 02:48:58;;;;;;;42.93;25.27;;;;;;;9.03;87.30;101028.19;1742183;82;21213;-52
2021/12/11 02:52:12;;;;;;;45.65;24.12;;;;;;;8.98;87.15;101025.05;1742342;82;21181;-52
2021/12/11 02:55:28;;;;;;;42.53;22.95;;;;;;;8.97;87.22;101028.27;1734372;82;21390;-52
2021/12/11 02:58:37;;;;;;;42.90;23.98;;;;;;;8.97;87.08;101035.09;1741973;82;21217;-51
2021/12/11 03:01:51;;;;;;;42.50;24.40;;;;;;;8.95;87.02;101037.64;1740823;82;21196;-52
2021/12/11 03:05:08;;;;;;;51.60;26.62;;;;;;;8.94;86.98;101038.13;1742124;82;21362;-52
2021/12/11 03:08:06;;;;;;;50.70;27.37;;;;;;;8.95;86.98;101040.36;1741830;82;21212;-52
2021/12/11 03:11:16;;;;;;;50.50;25.32;;;;;;;8.91;86.78;101045.79;1742507;82;21304;-53
2021/12/11 03:14:21;;;;;;;47.08;24.85;;;;;;;8.82;86.50;101054.84;1742201;82;21340;-52
2021/12/11 03:17:28;;;;;;;49.40;25.92;;;;;;;8.77;86.60;101060.75;1742912;82;21347;-53
2021/12/11 03:20:32;;;;;;;45.85;24.00;;;;;;;8.74;86.70;101047.41;1742380;82;21350;-51
2021/12/11 03:23:38;;;;;;;41.92;23.20;;;;;;;8.67;86.53;101050.87;1742401;82;21232;-52
2021/12/11 03:26:44;;;;;;;42.48;22.62;;;;;;;8.62;86.69;101057.28;1742269;82;21347;-53
2021/12/11 03:29:51;;;;;;;49.67;24.60;;;;;;;8.54;86.67;101058.02;1740992;80;21287;-52
2021/12/11 03:33:01;;;;;;;43.00;24.25;;;;;;;8.52;86.95;101053.70;1740543;82;21197;-52
2021/12/11 03:36:06;;;;;;;43.78;23.07;;;;;;;8.56;86.91;101052.41;1740443;82;21742;-52
2021/12/11 03:39:16;;;;;;;38.70;21.68;;;;;;;8.52;86.94;101056.42;1740466;81;21276;-52
2021/12/11 03:42:26;;;;;;;43.75;22.48;;;;;;;8.54;86.98;101062.61;1740466;82;21255;-52
2021/12/11 03:45:38;;;;;;;40.75;22.55;;;;;;;8.56;86.92;101056.51;1740195;82;21729;-53
2021/12/11 03:48:50;;;;;;;39.65;21.85;;;;;;;8.57;86.87;101060.95;1740838;82;21229;-53
2021/12/11 03:51:56;;;;;;;45.35;24.72;;;;;;;8.57;86.76;101056.36;1741005;81;21351;-53
2021/12/11 03:55:02;;;;;;;45.90;23.90;;;;;;;8.58;86.64;101058.56;1740622;82;21331;-53
2021/12/11 03:58:08;;;;;;;46.00;23.67;;;;;;;8.57;86.47;101052.76;1740192;81;21236;-53
2021/12/11 04:01:23;;;;;;;47.33;25.17;;;;;;;8.52;86.33;101042.78;1741085;82;21204;-53
2021/12/11 04:04:43;;;;;;;48.80;24.50;;;;;;;8.48;86.35;101053.13;1741022;81;21224;-53
2021/12/11 04:07:54;;;;;;;41.48;23.87;;;;;;;8.37;86.04;101045.62;1740452;82;21323;-51
2021/12/11 04:10:58;;;;;;;37.00;22.15;;;;;;;8.31;86.42;101042.12;1741012;82;21304;-51
2021/12/11 04:14:08;;;;;;;44.75;23.98;;;;;;;8.31;86.50;101042.12;1740727;82;21901;-52
2021/12/11 04:17:14;;;;;;;43.02;24.43;;;;;;;8.28;86.28;101047.34;1740457;81;21315;-52
2021/12/11 04:20:23;;;;;;;45.28;25.75;;;;;;;8.22;86.36;101061.53;1742167;81;21181;-53
2021/12/11 04:23:30;;;;;;;41.90;22.58;;;;;;;8.19;86.42;101049.55;1740533;82;21429;-53
2021/12/11 04:26:36;;;;;;;39.27;22.22;;;;;;;8.18;86.50;101039.63;1740303;81;21271;-52
2021/12/11 04:29:42;;;;;;;42.83;23.47;;;;;;;8.13;86.39;101041.08;1740392;81;21247;-53
2021/12/11 04:32:48;;;;;;;43.10;23.25;;;;;;;8.07;86.40;101047.12;1741558;80;21355;-53
2021/12/11 04:35:56;;;;;;;41.80;22.60;;;;;;;8.06;86.50;101046.73;1740251;82;21197;-53
2021/12/11 04:39:02;;;;;;;42.85;23.12;;;;;;;8.05;86.60;101042.30;1741136;81;21248;-53
2021/12/11 04:42:17;;;;;;;41.30;22.13;;;;;;;8.09;86.72;101040.99;1741141;81;21201;-54
2021/12/11 04:45:19;;;;;;;42.33;23.92;;;;;;;8.11;86.61;101037.63;1740222;82;21228;-53
2021/12/11 04:48:54;;;;;;;44.85;25.00;;;;;;;8.11;86.41;101040.36;1740132;82;21232;-54
2021/12/11 04:52:03;;;;;;;50.75;24.70;;;;;;;8.04;85.97;101023.71;1740258;82;21343;-52
2021/12/11 04:55:15;;;;;;;48.30;25.02;;;;;;;7.96;86.13;101044.54;1740963;82;21200;-52
2021/12/11 05:01:50;;;;;;;41.33;23.00;;;;;;;7.83;86.11;101042.09;1740178;82;21388;-52
2021/12/11 05:11:27;;;;;;;41.83;20.85;;;;;;;7.88;86.37;101027.51;1740236;82;21197;-53
2021/12/11 05:14:26;;;;;;;38.02;19.75;;;;;;;7.89;86.33;101025.66;1740288;82;21232;-52
2021/12/11 05:17:32;;;;;;;38.02;19.75;;;;;;;7.88;86.11;101026.14;1757253;81;21366;-52
2021/12/11 05:20:38;;;;;;;43.40;20.10;;;;;;;7.84;85.82;101025.22;1770799;81;21201;-52
2021/12/11 05:23:43;;;;;;;35.83;19.07;;;;;;;7.80;85.74;101026.52;1770786;80;21770;-52
2021/12/11 05:26:50;;;;;;;38.00;20.45;;;;;;;7.79;85.73;101020.20;1770542;80;21193;-52
2021/12/11 05:29:54;;;;;;;34.90;19.05;;;;;;;7.79;85.59;101020.69;1770840;81;21402;-52
2021/12/11 05:33:01;;;;;;;33.10;19.62;;;;;;;7.74;85.50;101015.67;1760503;80;21248;-54
2021/12/11 05:36:09;;;;;;;39.63;19.62;;;;;;;7.70;85.35;101010.66;1742565;80;21209;-54
2021/12/11 05:39:22;;;;;;;36.17;18.80;;;;;;;7.58;85.17;101024.41;1740355;82;21217;-54
2021/12/11 05:42:28;;;;;;;40.80;22.42;;;;;;;7.54;85.39;101018.90;1740293;82;21216;-53
2021/12/11 05:45:35;;;;;;;34.65;21.40;;;;;;;7.52;85.29;101029.06;1733312;82;21208;-53
2021/12/11 05:48:41;;;;;;;41.00;21.48;;;;;;;7.44;85.38;101023.45;1739809;82;21267;-52
2021/12/11 05:51:48;;;;;;;37.15;20.32;;;;;;;7.42;85.56;101035.51;1740067;82;21185;-52
2021/12/11 05:54:54;;;;;;;35.92;19.42;;;;;;;7.39;85.48;101050.25;1739872;82;21766;-53
2021/12/11 05:58:02;;;;;;;38.40;20.95;;;;;;;7.39;85.59;101046.65;1739853;82;21745;-53
2021/12/11 06:01:07;;;;;;;36.10;20.30;;;;;;;7.41;85.55;101044.66;1739726;82;21252;-53
2021/12/11 06:04:19;;;;;;;39.83;20.32;;;;;;;7.40;85.44;101043.78;1740468;81;21288;-53
2021/12/11 06:07:28;;;;;;;39.13;20.02;;;;;;;7.40;85.27;101021.99;1731516;82;21737;-54
2021/12/11 06:10:34;;;;;;;39.38;21.35;;;;;;;7.37;85.15;101016.83;1721602;83;21328;-53
2021/12/11 06:13:39;;;;;;;39.92;22.25;;;;;;;7.38;85.26;101027.23;1705813;84;21744;-53
2021/12/11 06:16:44;;;;;;;35.65;18.50;;;;;;;7.40;85.04;101034.25;1721166;83;21332;-53
2021/12/11 06:19:52;;;;;;;30.45;19.02;;;;;;;7.35;84.84;101027.03;1705145;84;21705;-53
2021/12/11 06:22:59;;;;;;;35.78;18.50;;;;;;;7.33;84.69;101030.38;1720574;83;21245;-53
2021/12/11 06:26:06;;;;;;;34.00;18.10;;;;;;;7.29;84.49;101019.39;1705589;84;21235;-53
2021/12/11 06:29:12;;;;;;;30.52;18.07;;;;;;;7.19;84.30;101028.05;1720834;83;21734;-53
2021/12/11 06:32:17;;;;;;;29.37;18.02;;;;;;;7.14;84.39;101033.53;1705525;84;21215;-53
2021/12/11 06:35:54;;;;;;;30.40;17.82;;;;;;;7.15;84.61;101040.20;1695133;83;21727;-53
2021/12/11 06:39:03;;;;;;;25.90;15.72;;;;;;;7.12;84.57;101039.64;1711869;83;21232;-54
2021/12/11 06:42:10;;;;;;;26.15;15.13;;;;;;;7.17;84.68;101045.51;1712397;82;21826;-54
2021/12/11 06:45:16;;;;;;;24.02;15.20;;;;;;;7.14;84.30;101038.49;1766235;81;21611;-53
2021/12/11 06:48:25;;;;;;;25.35;14.03;;;;;;;7.15;84.29;101042.92;1753362;80;21274;-53
2021/12/11 06:51:30;;;;;;;24.30;13.10;;;;;;;7.14;84.08;101049.38;1753436;81;21216;-53
2021/12/11 06:54:36;;;;;;;23.35;14.03;;;;;;;7.11;83.80;101052.38;1739782;81;21296;-53
2021/12/11 06:57:42;;;;;;;24.52;13.85;;;;;;;7.00;83.50;101062.50;1769306;81;21609;-53
2021/12/11 07:00:48;;;;;;;25.62;14.20;;;;;;;6.93;83.65;101076.31;1768006;81;21177;-53
2021/12/11 07:03:56;;;;;;;23.90;13.95;;;;;;;6.90;83.85;101085.59;1754787;81;21267;-53
2021/12/11 07:07:01;;;;;;;26.40;13.80;;;;;;;6.94;84.11;101089.78;1757612;81;21177;-52
2021/12/11 07:10:06;;;;;;;24.45;14.55;;;;;;;6.99;83.96;101095.65;1744082;81;21267;-52
2021/12/11 07:13:12;;;;;;;22.80;14.47;;;;;;;7.00;83.84;101089.72;1704784;84;21259;-52
2021/12/11 07:16:17;;;;;;;20.85;13.98;;;;;;;6.96;83.58;101091.84;1693865;83;21732;-52
2021/12/11 07:19:22;;;;;;;24.57;14.93;;;;;;;6.91;83.47;101098.70;1692189;83;21265;-53
2021/12/11 07:22:26;;;;;;;21.15;13.08;;;;;;;6.87;83.51;101104.91;1739016;82;21192;-53
2021/12/11 07:25:39;;;;;;;18.40;12.33;;;;;;;6.83;83.38;101089.86;1739690;82;21761;-53
2021/12/11 07:28:48;;;;;;;21.35;13.50;;;;;;;6.82;83.49;101098.16;1750167;81;21584;-53
2021/12/11 07:31:55;;;;;;;22.77;13.75;;;;;;;6.86;83.48;101100.97;1755913;81;21161;-53
2021/12/11 07:35:00;;;;;;;21.02;12.23;;;;;;;6.91;83.36;101064.69;1754149;79;21406;-54
2021/12/11 07:38:05;;;;;;;20.15;12.90;;;;;;;6.93;83.27;101089.39;1740814;82;21453;-53
2021/12/11 07:41:15;;;;;;;21.37;12.20;;;;;;;6.96;83.07;101096.45;1740476;82;21419;-53
2021/12/11 07:44:20;;;;;;;18.23;11.38;;;;;;;6.93;82.66;101105.72;1740046;82;21400;-53
2021/12/11 07:47:25;;;;;;;17.48;11.83;;;;;;;6.87;82.44;101096.75;1740194;82;21853;-53
2021/12/11 07:50:32;;;;;;;18.98;12.07;;;;;;;6.79;82.40;101091.11;1740434;82;21334;-54
2021/12/11 07:53:37;;;;;;;18.90;11.10;;;;;;;6.72;82.42;101081.78;1740623;82;21225;-53
2021/12/11 07:56:43;;;;;;;20.05;12.73;;;;;;;6.70;82.54;101086.48;1741062;82;21344;-53
2021/12/11 07:59:50;;;;;;;20.77;12.60;;;;;;;6.76;82.57;101084.58;1740980;82;21351;-54
2021/12/11 08:02:58;;;;;;;17.00;10.53;;;;;;;6.69;82.29;101101.59;1742950;81;21821;-53
2021/12/11 08:06:03;;;;;;;20.65;12.33;;;;;;;6.66;82.44;101106.77;1739675;82;21705;-54
2021/12/11 08:09:09;;;;;;;17.80;11.70;;;;;;;6.67;82.38;101089.48;1740858;82;21236;-53
2021/12/11 08:12:15;;;;;;;19.05;12.03;;;;;;;6.68;82.42;101095.27;1740959;82;21378;-54
2021/12/11 08:15:21;;;;;;;21.93;12.07;;;;;;;6.73;82.35;101098.95;1743212;81;21237;-53
2021/12/11 08:18:29;;;;;;;19.57;11.55;;;;;;;6.76;82.30;101099.55;1750629;81;21366;-53
2021/12/11 08:21:35;;;;;;;15.53;11.53;;;;;;;6.84;82.15;101081.18;1740015;82;21339;-54
2021/12/11 08:24:41;;;;;;;26.90;13.55;;;;;;;6.85;81.88;101095.17;1739458;82;21212;-53
2021/12/11 08:27:47;;;;;;;24.25;15.15;;;;;;;6.81;81.33;101102.73;1739809;82;21220;-53
2021/12/11 08:30:54;;;;;;;21.65;14.07;;;;;;;6.74;81.28;101093.37;1739686;82;21192;-53
2021/12/11 08:34:00;;;;;;;24.75;15.65;;;;;;;6.75;81.46;101085.59;1740150;82;21335;-55
2021/12/11 08:37:08;;;;;;;33.15;19.70;;;;;;;6.71;81.40;101100.44;1738150;81;21220;-53
2021/12/11 08:40:19;;;;;;;34.43;19.40;;;;;;;6.72;81.46;101081.78;1739501;82;21186;-53
2021/12/11 08:43:27;;;;;;;22.00;13.48;;;;;;;6.67;81.35;101103.56;1739040;82;21702;-53
2021/12/11 08:46:35;;;;;;;21.52;13.38;;;;;;;6.62;81.33;101068.61;1741070;82;21331;-53
2021/12/11 08:49:41;;;;;;;19.23;12.73;;;;;;;6.58;81.37;101082.09;1753896;80;21242;-52
2021/12/11 08:52:49;;;;;;;17.17;12.18;;;;;;;6.51;81.27;101070.53;1746261;81;21836;-53
2021/12/11 08:55:58;;;;;;;18.60;11.43;;;;;;;6.54;81.62;101055.30;1768365;81;21235;-53
2021/12/11 08:59:05;;;;;;;21.80;13.32;;;;;;;6.59;81.66;101027.20;1763210;80;21193;-55
2021/12/11 09:02:22;;;;;;;16.97;11.33;;;;;;;6.54;81.28;101028.10;1747813;81;21185;-52
2021/12/11 09:05:37;;;;;;;21.62;12.63;;;;;;;6.46;81.38;101032.86;1742455;81;21222;-52
2021/12/11 09:08:57;;;;;;;24.15;15.75;;;;;;;6.44;81.46;101033.48;1739124;82;21237;-56
2021/12/11 09:12:07;;;;;;;29.40;18.37;;;;;;;6.43;81.67;101040.42;1739231;82;21183;-55
2021/12/11 09:15:18;;;;;;;26.10;14.98;;;;;;;6.41;81.61;101050.55;1769766;81;21305;-52
2021/12/11 09:18:35;;;;;;;18.55;13.00;;;;;;;6.40;81.61;101044.28;1769770;80;21741;-53
2021/12/11 09:21:52;;;;;;;20.92;12.85;;;;;;;6.39;81.58;101030.30;1770844;80;21383;-54
2021/12/11 09:25:04;;;;;;;22.13;13.28;;;;;;;6.39;81.59;101033.02;1770524;80;21830;-53
2021/12/11 09:28:28;;;;;;;23.83;16.85;;;;;;;6.37;81.51;101043.19;1769853;80;21231;-54
2021/12/11 09:31:46;;;;;;;26.68;16.37;;;;;;;6.37;81.56;101035.52;1753688;81;21208;-52
2021/12/11 09:34:59;;;;;;;24.75;13.88;;;;;;;6.35;81.55;101039.73;1749378;81;21214;-52
2021/12/11 09:38:08;;;;;;;20.72;12.58;;;;;;;6.38;81.71;101039.95;1768737;80;21343;-52
2021/12/11 09:41:26;;;;;;;20.37;11.10;;;;;;;6.40;81.67;101056.52;1702087;84;21260;-52
2021/12/11 09:44:46;;;;;;;19.40;11.55;;;;;;;6.44;81.47;101044.36;1752032;81;21216;-53
2021/12/11 09:47:57;;;;;;;22.25;14.07;;;;;;;6.43;81.04;101053.53;1744735;81;21868;-53
2021/12/11 09:51:09;;;;;;;23.83;13.85;;;;;;;6.41;81.08;101061.44;1770665;80;21286;-52
2021/12/11 09:54:18;;;;;;;16.80;11.12;;;;;;;6.41;81.08;101069.11;1770144;80;21713;-53
2021/12/11 09:57:26;;;;;;;18.80;12.03;;;;;;;6.38;80.81;101069.38;1770054;80;22104;-52
2021/12/11 10:00:40;;;;;;;15.23;10.82;;;;;;;6.30;80.59;101088.20;1768975;81;21184;-51
2021/12/11 10:03:54;;;;;;;16.07;10.43;;;;;;;6.12;80.62;101089.76;1769221;80;21629;-54
2021/12/11 10:10:28;;;;;;;16.85;12.43;;;;;;;6.04;81.31;101067.84;1768429;80;21301;-52
2021/12/11 10:13:36;;;;;;;23.70;14.68;;;;;;;6.04;81.60;101073.27;1745571;80;21219;-52
2021/12/11 10:16:47;;;;;;;17.92;12.00;;;;;;;6.08;81.85;101074.23;1739939;82;21189;-52
2021/12/11 10:19:52;;;;;;;16.27;10.70;;;;;;;6.02;81.95;101073.38;1739127;82;21231;-52
2021/12/11 10:23:02;;;;;;;21.30;12.70;;;;;;;6.01;82.23;101078.94;1738545;82;21220;-52
2021/12/11 10:26:10;;;;;;;18.20;12.10;;;;;;;5.95;82.50;101071.31;1737972;81;21750;-52
2021/12/11 10:29:17;;;;;;;19.62;12.37;;;;;;;5.93;82.93;101090.46;1745586;80;21833;-51
2021/12/11 10:32:30;;;;;;;20.30;12.13;;;;;;;5.97;83.22;101086.52;1738912;82;21184;-52
2021/12/11 10:35:40;;;;;;;20.30;13.03;;;;;;;6.03;83.33;101078.32;1739175;82;21213;-54
2021/12/11 10:38:47;;;;;;;17.67;12.37;;;;;;;6.05;83.12;101080.42;1737616;82;21820;-52
2021/12/11 10:41:54;;;;;;;20.27;12.25;;;;;;;5.97;83.02;101085.16;1739864;81;21185;-52
2021/12/11 10:45:02;;;;;;;16.32;11.08;;;;;;;5.97;83.28;101096.02;1768567;81;21169;-53
2021/12/11 10:48:13;;;;;;;16.17;11.93;;;;;;;6.00;83.40;101101.69;1767413;80;21200;-52
2021/12/11 10:51:25;;;;;;;17.32;12.25;;;;;;;6.05;83.42;101103.03;1738276;82;21200;-52
2021/12/11 10:54:32;;;;;;;20.72;12.93;;;;;;;6.12;83.43;101107.95;1739576;81;21216;-57
2021/12/11 10:57:36;;;;;;;20.55;13.75;;;;;;;6.20;83.38;101113.59;1739474;82;21699;-52
2021/12/11 11:00:50;;;;;;;19.50;13.00;;;;;;;6.27;83.18;101110.70;1766398;80;21196;-52
2021/12/11 11:04:00;;;;;;;19.90;12.82;;;;;;;6.31;83.11;101109.47;1770228;80;21216;-52
2021/12/11 11:07:06;;;;;;;16.25;11.12;;;;;;;6.31;82.89;101115.75;1770131;80;21201;-53
2021/12/11 11:10:16;;;;;;;15.18;10.70;;;;;;;6.35;82.81;101123.15;1769780;80;21762;-52
2021/12/11 11:13:22;;;;;;;15.63;10.50;;;;;;;6.38;82.61;101133.27;1761965;81;21718;-53
2021/12/11 11:16:29;;;;;;;15.70;10.20;;;;;;;6.31;82.22;101121.70;1768729;80;21193;-53
2021/12/11 11:19:38;;;;;;;19.80;11.45;;;;;;;6.27;82.25;101129.25;1760717;81;21225;-52
2021/12/11 11:22:45;;;;;;;18.40;11.80;;;;;;;6.28;82.36;101131.48;1769310;81;21218;-53
2021/12/11 11:25:52;;;;;;;18.85;12.40;;;;;;;6.27;82.23;101146.92;1750012;80;21224;-53
2021/12/11 11:29:00;;;;;;;21.33;11.53;;;;;;;6.32;82.29;101151.48;1706099;83;21362;-53
2021/12/11 11:32:10;;;;;;;16.35;12.28;;;;;;;6.31;82.10;101153.81;1739734;82;21229;-52
2021/12/11 11:35:22;;;;;;;18.52;12.23;;;;;;;6.24;81.84;101152.63;1739856;82;22209;-53
2021/12/11 11:38:31;;;;;;;19.83;12.63;;;;;;;6.18;82.12;101146.84;1737263;81;21279;-53
2021/12/11 11:41:41;;;;;;;25.30;15.32;;;;;;;6.18;82.26;101155.86;1728197;82;21195;-52
2021/12/11 11:44:50;;;;;;;22.32;13.65;;;;;;;6.20;82.38;101159.30;1707152;84;21180;-52
2021/12/11 11:47:54;;;;;;;18.98;11.78;;;;;;;6.25;82.49;101154.85;1707811;83;21938;-53
2021/12/11 11:51:01;;;;;;;19.48;12.60;;;;;;;6.31;82.42;101157.89;1707568;84;21784;-53
2021/12/11 11:54:06;;;;;;;17.42;11.40;;;;;;;6.28;82.07;101162.23;1707621;84;21740;-53
2021/12/11 11:57:20;;;;;;;16.97;11.73;;;;;;;6.29;82.16;101160.38;1707385;84;21231;-53
2021/12/11 12:00:30;;;;;;;18.12;12.13;;;;;;;6.32;82.08;101162.36;1724036;82;21693;-53
2021/12/11 12:03:39;;;;;;;20.00;12.30;;;;;;;6.34;81.82;101149.50;1711093;82;21271;-53
2021/12/11 12:06:54;;;;;;;19.62;11.85;;;;;;;6.33;81.78;101161.87;1714291;82;21206;-52
2021/12/11 12:10:00;;;;;;;18.55;11.80;;;;;;;6.31;81.61;101150.25;1725122;83;21399;-54
2021/12/11 12:13:07;;;;;;;18.07;12.28;;;;;;;6.23;81.53;101144.11;1725109;83;21365;-52
2021/12/11 12:16:16;;;;;;;21.68;12.85;;;;;;;6.22;81.66;101142.36;1726723;82;21875;-51
2021/12/11 12:19:23;;;;;;;19.45;13.18;;;;;;;6.16;81.59;101137.94;1699739;84;21534;-56
2021/12/11 12:22:29;;;;;;;22.10;13.38;;;;;;;6.06;81.56;101130.56;1699873;84;21329;-53
2021/12/11 12:25:34;;;;;;;23.42;14.30;;;;;;;6.03;81.86;101126.75;1705423;82;21209;-53
2021/12/11 12:28:41;;;;;;;19.17;12.73;;;;;;;6.00;81.91;101143.80;1706391;84;21788;-53
2021/12/11 12:31:51;;;;;;;19.98;11.83;;;;;;;6.01;82.07;101145.52;1706476;84;21212;-52
2021/12/11 12:35:00;;;;;;;17.15;11.73;;;;;;;6.08;82.27;101144.90;1706992;84;21199;-53
2021/12/11 12:38:07;;;;;;;17.70;12.60;;;;;;;6.16;82.17;101151.53;1707245;84;21681;-53
2021/12/11 12:41:30;;;;;;;16.15;11.68;;;;;;;6.19;81.87;101156.70;1729236;81;21359;-53
2021/12/11 12:44:36;;;;;;;19.73;13.38;;;;;;;6.17;81.72;101140.53;1751142;81;21260;-53
2021/12/11 12:47:45;;;;;;;20.65;13.20;;;;;;;6.16;81.45;101137.45;1742173;82;21343;-52
2021/12/11 12:51:04;;;;;;;18.98;12.80;;;;;;;6.07;81.26;101143.67;1743022;81;21699;-53
2021/12/11 12:54:11;;;;;;;16.93;12.30;;;;;;;6.03;81.38;101140.83;1740975;82;21351;-53
2021/12/11 12:57:27;;;;;;;19.12;12.58;;;;;;;5.99;81.32;101157.03;1739581;82;21959;-52
2021/12/11 13:00:46;;;;;;;21.17;13.83;;;;;;;6.02;81.41;101163.57;1741973;82;22162;-51
2021/12/11 13:03:54;;;;;;;20.17;13.98;;;;;;;6.00;81.21;101170.98;1743651;81;21214;-52
2021/12/11 13:07:01;;;;;;;21.27;13.28;;;;;;;5.97;81.08;101176.67;1746567;81;21383;-53
2021/12/11 13:10:09;;;;;;;18.55;12.88;;;;;;;5.90;80.97;101182.23;1744688;81;21347;-52
2021/12/11 13:13:16;;;;;;;18.05;12.82;;;;;;;5.87;80.99;101189.28;1732955;82;21299;-53
2021/12/11 13:16:26;;;;;;;18.98;11.95;;;;;;;5.81;81.09;101182.97;1740951;82;21878;-53
2021/12/11 13:19:39;;;;;;;19.57;13.75;;;;;;;5.83;81.31;101183.27;1741180;82;21918;-54
2021/12/11 13:22:48;;;;;;;17.82;12.90;;;;;;;5.88;81.31;101167.94;1761630;81;21347;-53
2021/12/11 13:26:02;;;;;;;18.02;12.45;;;;;;;5.84;81.20;101163.24;1771069;80;21328;-53
2021/12/11 13:29:11;;;;;;;18.90;13.38;;;;;;;5.80;81.23;101178.02;1771585;80;21846;-53
2021/12/11 13:32:21;;;;;;;16.95;12.13;;;;;;;5.76;81.26;101196.06;1771492;80;21323;-52
2021/12/11 13:35:30;;;;;;;22.48;13.38;;;;;;;5.75;81.34;101187.55;1770444;80;21433;-53
2021/12/11 13:38:38;;;;;;;17.73;13.20;;;;;;;5.71;81.14;101199.16;1771033;80;21205;-53
2021/12/11 13:41:47;;;;;;;19.23;13.58;;;;;;;5.66;81.30;101214.11;1757831;80;21213;-51
2021/12/11 13:44:54;;;;;;;23.95;14.33;;;;;;;5.64;81.54;101216.08;1730685;82;21177;-53
2021/12/11 13:48:01;;;;;;;23.65;14.38;;;;;;;5.59;81.48;101212.39;1691573;85;21798;-53
2021/12/11 13:51:12;;;;;;;23.07;13.70;;;;;;;5.56;81.57;101207.69;1676022;85;21452;-53
2021/12/11 13:54:18;;;;;;;18.62;13.40;;;;;;;5.56;81.72;101217.20;1692392;84;21280;-53
2021/12/11 13:57:25;;;;;;;20.35;13.83;;;;;;;5.53;81.73;101202.51;1691587;84;21375;-54
2021/12/11 14:00:38;;;;;;;18.45;13.45;;;;;;;5.50;81.83;101199.53;1691335;85;21379;-54
2021/12/11 14:03:44;;;;;;;23.07;14.47;;;;;;;5.49;81.94;101195.09;1691344;85;21431;-52
2021/12/11 14:06:58;;;;;;;21.50;15.48;;;;;;;5.52;82.12;101207.55;1690898;85;21396;-51
2021/12/11 14:10:04;;;;;;;18.48;13.32;;;;;;;5.53;82.18;101205.23;1691004;85;21387;-53
2021/12/11 14:13:16;;;;;;;22.65;15.10;;;;;;;5.56;82.20;101209.05;1690881;85;21395;-53
2021/12/11 14:16:22;;;;;;;20.20;14.55;;;;;;;5.58;82.17;101220.66;1690901;85;21865;-54
2021/12/11 14:19:27;;;;;;;22.67;14.85;;;;;;;5.57;82.13;101211.64;1690951;85;21376;-53
2021/12/11 14:22:37;;;;;;;20.92;14.50;;;;;;;5.61;82.10;101228.55;1691217;85;21742;-54
2021/12/11 14:25:44;;;;;;;24.15;15.48;;;;;;;5.64;82.10;101233.25;1701907;83;21372;-54
2021/12/11 14:28:52;;;;;;;22.70;15.53;;;;;;;5.66;82.02;101227.70;1767003;81;21565;-54
2021/12/11 14:31:57;;;;;;;23.55;15.72;;;;;;;5.67;82.00;101227.57;1768582;80;21467;-55
2021/12/11 14:35:04;;;;;;;26.00;17.17;;;;;;;5.64;81.80;101235.09;1769950;80;21722;-52
2021/12/11 14:38:12;;;;;;;33.45;22.15;;;;;;;5.68;81.92;101247.42;1770663;80;21216;-53
2021/12/11 14:41:17;;;;;;;28.25;17.57;;;;;;;5.72;81.94;101254.36;1770203;81;21750;-53